Terminal Aerodrome Forecast
Issued by NWS

Home | Current Version | Previous Version | Text Only | Print | Product List | Glossary On
Versions: 1 2 3 4 5 6 7 8 9 10 11 12 13 14
486
FTUS42 KTBW 191739
TAFRSW
TAF
KRSW 191739Z 1918/2018 07008KT P6SM BKN250
     FM200000 05004KT P6SM BKN250
     FM200400 06003KT P6SM BKN200=

USA.gov is the U.S. government's official web portal to all federal, state and local government web resources and services.